sensor_id;sensor_type;location;lat;lon;timestamp;pressure;altitude;pressure_sealevel;temperature;humidity
75513;BME280;64090;49.770;18.760;2023-07-09T00:02:50;98056.19;;;14.75;62.45
75513;BME280;64090;49.770;18.760;2023-07-09T00:05:53;98063.11;;;14.69;62.03
75513;BME280;64090;49.770;18.760;2023-07-09T00:08:56;98066.94;;;14.65;61.96
75513;BME280;64090;49.770;18.760;2023-07-09T00:11:59;98066.73;;;14.65;62.12
75513;BME280;64090;49.770;18.760;2023-07-09T00:15:02;98064.48;;;14.64;62.31
75513;BME280;64090;49.770;18.760;2023-07-09T00:18:07;98066.21;;;14.60;62.44
75513;BME280;64090;49.770;18.760;2023-07-09T00:21:11;98064.11;;;14.57;62.14
75513;BME280;64090;49.770;18.760;2023-07-09T00:24:14;98058.30;;;14.52;62.22
75513;BME280;64090;49.770;18.760;2023-07-09T00:27:19;98059.22;;;14.49;62.22
75513;BME280;64090;49.770;18.760;2023-07-09T00:30:23;98060.02;;;14.50;62.46
75513;BME280;64090;49.770;18.760;2023-07-09T00:33:26;98062.45;;;14.50;62.39
75513;BME280;64090;49.770;18.760;2023-07-09T00:36:34;98061.21;;;14.48;62.33
75513;BME280;64090;49.770;18.760;2023-07-09T00:39:37;98061.13;;;14.44;62.23
75513;BME280;64090;49.770;18.760;2023-07-09T00:42:44;98060.27;;;14.39;62.28
75513;BME280;64090;49.770;18.760;2023-07-09T00:49:40;98064.40;;;14.29;62.37
75513;BME280;64090;49.770;18.760;2023-07-09T00:52:52;98064.10;;;14.27;62.20
75513;BME280;64090;49.770;18.760;2023-07-09T00:56:05;98059.70;;;14.23;62.09
75513;BME280;64090;49.770;18.760;2023-07-09T00:59:13;98057.48;;;14.17;62.23
75513;BME280;64090;49.770;18.760;2023-07-09T01:02:17;98046.52;;;14.12;62.58
75513;BME280;64090;49.770;18.760;2023-07-09T01:05:26;98042.91;;;14.09;62.78
75513;BME280;64090;49.770;18.760;2023-07-09T01:08:32;98040.35;;;14.06;62.89
75513;BME280;64090;49.770;18.760;2023-07-09T01:11:35;98042.00;;;14.02;62.71
75513;BME280;64090;49.770;18.760;2023-07-09T01:14:40;98042.94;;;13.98;62.95
75513;BME280;64090;49.770;18.760;2023-07-09T01:17:43;98045.69;;;13.94;63.37
75513;BME280;64090;49.770;18.760;2023-07-09T01:20:47;98051.02;;;13.87;63.57
75513;BME280;64090;49.770;18.760;2023-07-09T01:23:50;98052.57;;;13.81;63.50
75513;BME280;64090;49.770;18.760;2023-07-09T01:26:55;98056.30;;;13.78;63.32
75513;BME280;64090;49.770;18.760;2023-07-09T01:30:00;98056.73;;;13.76;63.41
75513;BME280;64090;49.770;18.760;2023-07-09T01:33:04;98058.34;;;13.75;63.64
75513;BME280;64090;49.770;18.760;2023-07-09T01:36:09;98053.39;;;13.72;63.88
75513;BME280;64090;49.770;18.760;2023-07-09T01:39:12;98060.27;;;13.73;64.42
75513;BME280;64090;49.770;18.760;2023-07-09T01:42:17;98062.35;;;13.73;64.47
75513;BME280;64090;49.770;18.760;2023-07-09T01:45:21;98065.97;;;13.71;64.52
75513;BME280;64090;49.770;18.760;2023-07-09T01:48:25;98072.48;;;13.68;64.77
75513;BME280;64090;49.770;18.760;2023-07-09T01:51:28;98070.27;;;13.65;65.05
75513;BME280;64090;49.770;18.760;2023-07-09T01:54:31;98071.91;;;13.63;65.26
75513;BME280;64090;49.770;18.760;2023-07-09T01:57:40;98069.08;;;13.62;64.96
75513;BME280;64090;49.770;18.760;2023-07-09T02:00:44;98068.73;;;13.59;66.05
75513;BME280;64090;49.770;18.760;2023-07-09T02:03:47;98069.63;;;13.54;66.01
75513;BME280;64090;49.770;18.760;2023-07-09T02:06:50;98067.02;;;13.50;65.81
75513;BME280;64090;49.770;18.760;2023-07-09T02:09:53;98070.41;;;13.47;66.26
75513;BME280;64090;49.770;18.760;2023-07-09T02:12:56;98072.61;;;13.44;66.31
75513;BME280;64090;49.770;18.760;2023-07-09T02:15:59;98073.88;;;13.39;66.84
75513;BME280;64090;49.770;18.760;2023-07-09T02:19:03;98079.95;;;13.32;67.34
75513;BME280;64090;49.770;18.760;2023-07-09T02:22:06;98082.29;;;13.22;67.85
75513;BME280;64090;49.770;18.760;2023-07-09T02:25:10;98084.63;;;13.11;67.95
75513;BME280;64090;49.770;18.760;2023-07-09T02:28:13;98088.66;;;13.03;68.32
75513;BME280;64090;49.770;18.760;2023-07-09T02:31:17;98088.04;;;12.94;68.56
75513;BME280;64090;49.770;18.760;2023-07-09T02:34:21;98089.84;;;12.87;68.90
75513;BME280;64090;49.770;18.760;2023-07-09T02:37:28;98089.58;;;12.78;69.00
75513;BME280;64090;49.770;18.760;2023-07-09T02:40:31;98086.55;;;12.70;69.76
75513;BME280;64090;49.770;18.760;2023-07-09T02:43:34;98090.18;;;12.65;69.61
75513;BME280;64090;49.770;18.760;2023-07-09T02:46:37;98092.40;;;12.63;69.18
75513;BME280;64090;49.770;18.760;2023-07-09T02:49:41;98087.73;;;12.66;69.07
75513;BME280;64090;49.770;18.760;2023-07-09T02:52:44;98089.02;;;12.74;68.92
75513;BME280;64090;49.770;18.760;2023-07-09T02:55:47;98091.64;;;12.85;68.68
75513;BME280;64090;49.770;18.760;2023-07-09T02:58:51;98092.98;;;12.96;68.97
75513;BME280;64090;49.770;18.760;2023-07-09T03:01:54;98096.45;;;13.05;68.72
75513;BME280;64090;49.770;18.760;2023-07-09T03:04:57;98093.94;;;13.13;68.32
75513;BME280;64090;49.770;18.760;2023-07-09T03:08:00;98092.10;;;13.42;68.03
75513;BME280;64090;49.770;18.760;2023-07-09T03:11:14;98092.23;;;13.98;67.08
75513;BME280;64090;49.770;18.760;2023-07-09T03:14:17;98099.45;;;14.67;66.10
75513;BME280;64090;49.770;18.760;2023-07-09T03:17:20;98103.48;;;15.35;64.74
75513;BME280;64090;49.770;18.760;2023-07-09T03:20:23;98103.16;;;16.01;63.28
75513;BME280;64090;49.770;18.760;2023-07-09T03:23:28;98101.92;;;16.68;62.32
75513;BME280;64090;49.770;18.760;2023-07-09T03:26:31;98107.45;;;17.30;60.54
75513;BME280;64090;49.770;18.760;2023-07-09T03:29:34;98110.61;;;17.97;59.18
75513;BME280;64090;49.770;18.760;2023-07-09T03:32:37;98108.36;;;18.64;57.58
75513;BME280;64090;49.770;18.760;2023-07-09T03:35:40;98116.29;;;19.17;55.93
75513;BME280;64090;49.770;18.760;2023-07-09T03:38:43;98115.41;;;19.89;54.67
75513;BME280;64090;49.770;18.760;2023-07-09T03:41:45;98113.31;;;20.54;53.02
75513;BME280;64090;49.770;18.760;2023-07-09T03:44:48;98110.02;;;21.11;51.27
75513;BME280;64090;49.770;18.760;2023-07-09T03:47:52;98105.19;;;21.66;50.25
75513;BME280;64090;49.770;18.760;2023-07-09T03:50:55;98108.55;;;22.26;50.63
75513;BME280;64090;49.770;18.760;2023-07-09T03:53:59;98103.86;;;22.79;48.46
75513;BME280;64090;49.770;18.760;2023-07-09T03:57:02;98100.86;;;23.42;45.73
75513;BME280;64090;49.770;18.760;2023-07-09T04:00:07;98105.03;;;23.83;43.19
75513;BME280;64090;49.770;18.760;2023-07-09T04:03:13;98106.48;;;24.32;43.32
75513;BME280;64090;49.770;18.760;2023-07-09T04:06:16;98103.91;;;24.75;42.37
75513;BME280;64090;49.770;18.760;2023-07-09T04:09:20;98100.09;;;25.16;41.66
75513;BME280;64090;49.770;18.760;2023-07-09T04:12:23;98101.85;;;25.56;41.64
75513;BME280;64090;49.770;18.760;2023-07-09T04:15:26;98107.41;;;25.87;41.11
75513;BME280;64090;49.770;18.760;2023-07-09T04:18:29;98109.72;;;26.24;40.21
75513;BME280;64090;49.770;18.760;2023-07-09T04:21:33;98109.52;;;26.65;38.84
75513;BME280;64090;49.770;18.760;2023-07-09T04:24:36;98107.07;;;27.01;38.85
75513;BME280;64090;49.770;18.760;2023-07-09T04:27:39;98104.21;;;27.31;37.41
75513;BME280;64090;49.770;18.760;2023-07-09T04:30:49;98102.85;;;27.60;36.66
75513;BME280;64090;49.770;18.760;2023-07-09T04:33:53;98108.11;;;27.85;35.69
75513;BME280;64090;49.770;18.760;2023-07-09T04:36:56;98115.95;;;28.11;35.88
75513;BME280;64090;49.770;18.760;2023-07-09T04:39:59;98115.27;;;28.49;36.29
75513;BME280;64090;49.770;18.760;2023-07-09T04:43:02;98116.80;;;28.78;35.45
75513;BME280;64090;49.770;18.760;2023-07-09T04:46:05;98115.92;;;29.06;35.37
75513;BME280;64090;49.770;18.760;2023-07-09T04:49:09;98115.73;;;29.23;35.09
75513;BME280;64090;49.770;18.760;2023-07-09T04:52:15;98118.37;;;29.40;34.59
75513;BME280;64090;49.770;18.760;2023-07-09T04:55:18;98120.25;;;29.46;34.20
75513;BME280;64090;49.770;18.760;2023-07-09T04:58:22;98119.20;;;29.64;35.62
75513;BME280;64090;49.770;18.760;2023-07-09T05:01:25;98120.05;;;29.36;35.36
75513;BME280;64090;49.770;18.760;2023-07-09T05:04:28;98122.58;;;28.44;36.31
75513;BME280;64090;49.770;18.760;2023-07-09T05:07:30;98125.19;;;27.74;37.86
75513;BME280;64090;49.770;18.760;2023-07-09T05:10:41;98123.48;;;27.12;39.11
75513;BME280;64090;49.770;18.760;2023-07-09T05:13:45;98130.93;;;26.73;40.18
75513;BME280;64090;49.770;18.760;2023-07-09T05:16:48;98130.52;;;26.36;40.86
75513;BME280;64090;49.770;18.760;2023-07-09T05:19:51;98132.31;;;26.09;41.70
75513;BME280;64090;49.770;18.760;2023-07-09T05:22:54;98130.98;;;25.81;42.64
75513;BME280;64090;49.770;18.760;2023-07-09T05:25:58;98132.45;;;25.60;43.53
75513;BME280;64090;49.770;18.760;2023-07-09T05:29:03;98132.70;;;25.47;44.21
75513;BME280;64090;49.770;18.760;2023-07-09T05:32:07;98131.36;;;25.37;44.82
75513;BME280;64090;49.770;18.760;2023-07-09T05:35:10;98132.70;;;25.34;45.75
75513;BME280;64090;49.770;18.760;2023-07-09T05:38:14;98134.41;;;25.36;45.09
75513;BME280;64090;49.770;18.760;2023-07-09T05:41:17;98137.50;;;25.38;44.95
75513;BME280;64090;49.770;18.760;2023-07-09T05:44:20;98138.98;;;25.37;45.15
75513;BME280;64090;49.770;18.760;2023-07-09T05:47:24;98140.94;;;25.33;45.17
75513;BME280;64090;49.770;18.760;2023-07-09T05:50:28;98137.64;;;25.31;45.06
75513;BME280;64090;49.770;18.760;2023-07-09T05:53:31;98142.22;;;25.35;45.54
75513;BME280;64090;49.770;18.760;2023-07-09T05:56:37;98144.15;;;25.46;45.69
75513;BME280;64090;49.770;18.760;2023-07-09T05:59:40;98141.82;;;25.57;45.77
75513;BME280;64090;49.770;18.760;2023-07-09T06:02:43;98139.54;;;25.68;45.76
75513;BME280;64090;49.770;18.760;2023-07-09T06:05:46;98139.72;;;25.92;45.88
75513;BME280;64090;49.770;18.760;2023-07-09T06:08:51;98143.05;;;26.12;45.80
75513;BME280;64090;49.770;18.760;2023-07-09T06:11:54;98146.31;;;26.24;46.46
75513;BME280;64090;49.770;18.760;2023-07-09T06:14:57;98149.14;;;26.41;46.00
75513;BME280;64090;49.770;18.760;2023-07-09T06:18:00;98150.96;;;26.60;44.91
75513;BME280;64090;49.770;18.760;2023-07-09T06:21:03;98153.52;;;26.70;45.32
75513;BME280;64090;49.770;18.760;2023-07-09T06:24:07;98151.39;;;26.87;45.49
75513;BME280;64090;49.770;18.760;2023-07-09T06:27:10;98153.00;;;27.06;43.87
75513;BME280;64090;49.770;18.760;2023-07-09T06:30:13;98149.56;;;27.27;43.23
75513;BME280;64090;49.770;18.760;2023-07-09T06:33:18;98149.10;;;27.41;43.03
75513;BME280;64090;49.770;18.760;2023-07-09T06:36:21;98146.36;;;27.57;43.22
75513;BME280;64090;49.770;18.760;2023-07-09T06:39:24;98142.80;;;27.77;43.05
75513;BME280;64090;49.770;18.760;2023-07-09T06:42:27;98145.58;;;27.91;42.44
75513;BME280;64090;49.770;18.760;2023-07-09T06:45:30;98149.73;;;28.04;41.51
75513;BME280;64090;49.770;18.760;2023-07-09T06:48:34;98149.71;;;28.08;41.36
75513;BME280;64090;49.770;18.760;2023-07-09T06:51:37;98147.17;;;28.12;39.88
75513;BME280;64090;49.770;18.760;2023-07-09T06:54:40;98147.77;;;28.23;39.85
75513;BME280;64090;49.770;18.760;2023-07-09T06:57:43;98149.02;;;28.32;38.41
75513;BME280;64090;49.770;18.760;2023-07-09T07:00:48;98152.24;;;28.39;36.58
75513;BME280;64090;49.770;18.760;2023-07-09T07:03:51;98151.84;;;28.40;37.59
75513;BME280;64090;49.770;18.760;2023-07-09T07:06:54;98143.45;;;28.50;37.78
75513;BME280;64090;49.770;18.760;2023-07-09T07:09:59;98145.02;;;28.62;37.74
75513;BME280;64090;49.770;18.760;2023-07-09T07:13:02;98148.34;;;28.71;38.22
75513;BME280;64090;49.770;18.760;2023-07-09T07:16:08;98151.08;;;28.77;37.78
75513;BME280;64090;49.770;18.760;2023-07-09T07:19:11;98151.94;;;28.86;38.62
75513;BME280;64090;49.770;18.760;2023-07-09T07:22:14;98147.45;;;28.94;38.63
75513;BME280;64090;49.770;18.760;2023-07-09T07:25:17;98146.02;;;28.95;37.77
75513;BME280;64090;49.770;18.760;2023-07-09T07:28:20;98149.40;;;28.89;38.25
75513;BME280;64090;49.770;18.760;2023-07-09T07:31:23;98149.48;;;28.92;38.32
75513;BME280;64090;49.770;18.760;2023-07-09T07:34:26;98147.80;;;28.98;35.94
75513;BME280;64090;49.770;18.760;2023-07-09T07:37:29;98150.11;;;28.77;35.01
75513;BME280;64090;49.770;18.760;2023-07-09T07:40:32;98147.03;;;28.73;34.66
75513;BME280;64090;49.770;18.760;2023-07-09T07:43:35;98143.53;;;28.81;38.00
75513;BME280;64090;49.770;18.760;2023-07-09T07:46:38;98148.05;;;28.92;36.80
75513;BME280;64090;49.770;18.760;2023-07-09T07:49:41;98145.35;;;28.97;36.93
75513;BME280;64090;49.770;18.760;2023-07-09T07:52:44;98148.51;;;29.07;37.25
75513;BME280;64090;49.770;18.760;2023-07-09T07:55:47;98146.80;;;29.15;38.23
75513;BME280;64090;49.770;18.760;2023-07-09T07:58:50;98146.84;;;29.31;37.24
75513;BME280;64090;49.770;18.760;2023-07-09T08:01:53;98145.92;;;29.36;37.80
75513;BME280;64090;49.770;18.760;2023-07-09T08:04:56;98146.16;;;29.45;37.96
75513;BME280;64090;49.770;18.760;2023-07-09T08:07:59;98143.86;;;29.57;37.74
75513;BME280;64090;49.770;18.760;2023-07-09T08:11:05;98144.17;;;29.68;37.34
75513;BME280;64090;49.770;18.760;2023-07-09T08:14:11;98142.99;;;29.87;36.95
75513;BME280;64090;49.770;18.760;2023-07-09T08:17:14;98145.92;;;29.72;32.49
75513;BME280;64090;49.770;18.760;2023-07-09T08:20:17;98149.65;;;29.67;34.49
75513;BME280;64090;49.770;18.760;2023-07-09T08:23:20;98147.04;;;29.62;33.96
75513;BME280;64090;49.770;18.760;2023-07-09T08:26:23;98145.48;;;29.65;33.85
75513;BME280;64090;49.770;18.760;2023-07-09T08:29:27;98147.71;;;29.67;35.06
75513;BME280;64090;49.770;18.760;2023-07-09T08:32:30;98144.56;;;29.72;34.54
75513;BME280;64090;49.770;18.760;2023-07-09T08:35:33;98144.31;;;29.83;34.70
75513;BME280;64090;49.770;18.760;2023-07-09T08:38:38;98139.29;;;29.81;35.10
75513;BME280;64090;49.770;18.760;2023-07-09T08:41:49;98136.52;;;29.88;34.19
75513;BME280;64090;49.770;18.760;2023-07-09T08:48:27;98136.77;;;29.93;32.49
75513;BME280;64090;49.770;18.760;2023-07-09T08:51:36;98138.24;;;30.00;31.94
75513;BME280;64090;49.770;18.760;2023-07-09T08:54:42;98139.67;;;30.13;32.45
75513;BME280;64090;49.770;18.760;2023-07-09T08:57:52;98141.34;;;30.23;32.80
75513;BME280;64090;49.770;18.760;2023-07-09T09:01:01;98137.15;;;30.30;33.26
75513;BME280;64090;49.770;18.760;2023-07-09T09:04:25;98138.08;;;30.23;29.44
75513;BME280;64090;49.770;18.760;2023-07-09T09:07:41;98136.64;;;29.90;29.95
75513;BME280;64090;49.770;18.760;2023-07-09T09:10:53;98140.96;;;29.87;30.51
75513;BME280;64090;49.770;18.760;2023-07-09T09:14:01;98138.96;;;29.86;29.54
75513;BME280;64090;49.770;18.760;2023-07-09T09:17:17;98139.41;;;30.01;30.32
75513;BME280;64090;49.770;18.760;2023-07-09T09:20:22;98138.13;;;30.01;30.52
75513;BME280;64090;49.770;18.760;2023-07-09T09:23:30;98140.13;;;30.07;31.24
75513;BME280;64090;49.770;18.760;2023-07-09T09:26:41;98141.45;;;30.09;30.42
75513;BME280;64090;49.770;18.760;2023-07-09T09:29:45;98136.64;;;29.97;29.54
75513;BME280;64090;49.770;18.760;2023-07-09T09:32:56;98137.86;;;30.05;30.19
75513;BME280;64090;49.770;18.760;2023-07-09T09:36:03;98142.05;;;30.12;29.49
75513;BME280;64090;49.770;18.760;2023-07-09T09:39:09;98141.34;;;30.18;28.02
75513;BME280;64090;49.770;18.760;2023-07-09T09:42:13;98141.93;;;30.05;26.52
75513;BME280;64090;49.770;18.760;2023-07-09T09:45:18;98146.14;;;29.74;26.13
75513;BME280;64090;49.770;18.760;2023-07-09T09:48:30;98151.31;;;29.81;27.63
75513;BME280;64090;49.770;18.760;2023-07-09T09:51:33;98145.38;;;29.97;27.55
75513;BME280;64090;49.770;18.760;2023-07-09T09:54:40;98147.05;;;29.78;27.77
75513;BME280;64090;49.770;18.760;2023-07-09T09:57:49;98153.52;;;29.56;26.98
75513;BME280;64090;49.770;18.760;2023-07-09T10:00:57;98147.51;;;29.50;28.51
75513;BME280;64090;49.770;18.760;2023-07-09T10:04:03;98148.00;;;29.70;29.18
75513;BME280;64090;49.770;18.760;2023-07-09T10:07:07;98143.55;;;29.96;26.82
75513;BME280;64090;49.770;18.760;2023-07-09T10:10:19;98146.96;;;29.97;26.15
75513;BME280;64090;49.770;18.760;2023-07-09T10:13:29;98143.25;;;29.91;25.26
75513;BME280;64090;49.770;18.760;2023-07-09T10:16:38;98142.16;;;29.86;26.07
75513;BME280;64090;49.770;18.760;2023-07-09T10:19:59;98148.09;;;29.92;26.49
75513;BME280;64090;49.770;18.760;2023-07-09T10:23:33;98144.87;;;30.01;26.63
75513;BME280;64090;49.770;18.760;2023-07-09T10:26:48;98148.13;;;30.23;26.19
75513;BME280;64090;49.770;18.760;2023-07-09T10:37:20;98135.09;;;30.28;25.73
75513;BME280;64090;49.770;18.760;2023-07-09T10:40:33;98130.62;;;30.53;26.03
75513;BME280;64090;49.770;18.760;2023-07-09T10:43:47;98132.99;;;30.61;24.47
75513;BME280;64090;49.770;18.760;2023-07-09T10:46:58;98128.88;;;30.38;24.18
75513;BME280;64090;49.770;18.760;2023-07-09T10:50:04;98122.86;;;30.44;24.80
75513;BME280;64090;49.770;18.760;2023-07-09T10:56:32;98120.42;;;30.73;25.41
75513;BME280;64090;49.770;18.760;2023-07-09T10:59:40;98119.60;;;30.85;24.78
75513;BME280;64090;49.770;18.760;2023-07-09T11:02:43;98125.41;;;30.89;24.52
75513;BME280;64090;49.770;18.760;2023-07-09T11:05:49;98127.14;;;30.78;24.80
75513;BME280;64090;49.770;18.760;2023-07-09T11:08:53;98119.82;;;30.76;25.74
75513;BME280;64090;49.770;18.760;2023-07-09T11:12:04;98117.85;;;30.70;24.06
75513;BME280;64090;49.770;18.760;2023-07-09T11:15:18;98113.67;;;30.60;24.98
75513;BME280;64090;49.770;18.760;2023-07-09T11:18:26;98117.16;;;30.64;25.50
75513;BME280;64090;49.770;18.760;2023-07-09T11:21:32;98114.49;;;30.81;25.10
75513;BME280;64090;49.770;18.760;2023-07-09T11:24:47;98110.31;;;30.95;25.30
75513;BME280;64090;49.770;18.760;2023-07-09T11:27:52;98107.45;;;31.14;25.35
75513;BME280;64090;49.770;18.760;2023-07-09T11:31:06;98103.17;;;31.35;24.88
75513;BME280;64090;49.770;18.760;2023-07-09T11:37:25;98101.15;;;31.00;25.15
75513;BME280;64090;49.770;18.760;2023-07-09T11:40:28;98090.28;;;30.95;27.45
75513;BME280;64090;49.770;18.760;2023-07-09T11:43:35;98091.98;;;31.20;26.31
75513;BME280;64090;49.770;18.760;2023-07-09T11:46:54;98089.45;;;31.06;24.86
75513;BME280;64090;49.770;18.760;2023-07-09T11:50:00;98090.66;;;30.91;24.28
75513;BME280;64090;49.770;18.760;2023-07-09T11:56:56;98093.84;;;30.92;24.57
75513;BME280;64090;49.770;18.760;2023-07-09T11:59:59;98088.10;;;31.04;25.35
75513;BME280;64090;49.770;18.760;2023-07-09T12:03:05;98081.89;;;31.11;25.93
75513;BME280;64090;49.770;18.760;2023-07-09T12:06:22;98078.63;;;31.28;25.58
75513;BME280;64090;49.770;18.760;2023-07-09T12:09:32;98081.86;;;31.28;25.19
75513;BME280;64090;49.770;18.760;2023-07-09T12:12:35;98075.80;;;31.08;24.95
75513;BME280;64090;49.770;18.760;2023-07-09T12:15:39;98075.42;;;31.12;24.79
75513;BME280;64090;49.770;18.760;2023-07-09T12:18:42;98075.50;;;30.89;24.73
75513;BME280;64090;49.770;18.760;2023-07-09T12:21:48;98073.21;;;30.51;25.30
75513;BME280;64090;49.770;18.760;2023-07-09T12:24:53;98073.71;;;30.27;25.90
75513;BME280;64090;49.770;18.760;2023-07-09T12:27:58;98070.27;;;30.31;25.88
75513;BME280;64090;49.770;18.760;2023-07-09T12:31:01;98071.62;;;30.37;26.16
75513;BME280;64090;49.770;18.760;2023-07-09T12:34:12;98068.35;;;30.47;25.69
75513;BME280;64090;49.770;18.760;2023-07-09T12:37:16;98067.28;;;30.53;25.22
75513;BME280;64090;49.770;18.760;2023-07-09T12:40:22;98065.65;;;30.63;24.69
75513;BME280;64090;49.770;18.760;2023-07-09T12:43:28;98062.48;;;30.72;24.13
75513;BME280;64090;49.770;18.760;2023-07-09T12:46:31;98058.31;;;30.55;24.34
75513;BME280;64090;49.770;18.760;2023-07-09T12:49:41;98054.79;;;30.38;24.85
75513;BME280;64090;49.770;18.760;2023-07-09T12:52:46;98053.38;;;30.62;25.14
75513;BME280;64090;49.770;18.760;2023-07-09T12:55:50;98051.63;;;30.92;25.02
75513;BME280;64090;49.770;18.760;2023-07-09T12:58:57;98048.53;;;31.13;24.81
75513;BME280;64090;49.770;18.760;2023-07-09T13:02:21;98043.73;;;31.17;24.26
75513;BME280;64090;49.770;18.760;2023-07-09T13:05:25;98046.04;;;31.24;24.36
75513;BME280;64090;49.770;18.760;2023-07-09T13:08:32;98042.27;;;31.34;24.63
75513;BME280;64090;49.770;18.760;2023-07-09T13:11:35;98045.27;;;31.48;24.89
75513;BME280;64090;49.770;18.760;2023-07-09T13:14:39;98039.28;;;31.45;24.34
75513;BME280;64090;49.770;18.760;2023-07-09T13:17:42;98035.16;;;31.46;25.20
75513;BME280;64090;49.770;18.760;2023-07-09T13:20:46;98036.66;;;31.49;25.91
75513;BME280;64090;49.770;18.760;2023-07-09T13:23:53;98035.30;;;31.48;24.22
75513;BME280;64090;49.770;18.760;2023-07-09T13:26:57;98035.25;;;31.31;24.28
75513;BME280;64090;49.770;18.760;2023-07-09T13:30:02;98036.48;;;31.14;24.02
75513;BME280;64090;49.770;18.760;2023-07-09T13:33:08;98037.00;;;31.26;24.08
75513;BME280;64090;49.770;18.760;2023-07-09T13:36:12;98033.08;;;31.40;24.58
75513;BME280;64090;49.770;18.760;2023-07-09T13:39:16;98030.33;;;31.48;25.03
75513;BME280;64090;49.770;18.760;2023-07-09T13:42:19;98032.27;;;31.36;24.21
75513;BME280;64090;49.770;18.760;2023-07-09T13:45:24;98034.05;;;31.24;23.11
75513;BME280;64090;49.770;18.760;2023-07-09T13:48:28;98025.77;;;31.13;23.86
75513;BME280;64090;49.770;18.760;2023-07-09T13:51:32;98026.56;;;31.21;24.18
75513;BME280;64090;49.770;18.760;2023-07-09T13:54:35;98026.41;;;31.24;24.03
75513;BME280;64090;49.770;18.760;2023-07-09T13:57:38;98022.82;;;31.14;23.56
75513;BME280;64090;49.770;18.760;2023-07-09T14:00:42;98021.10;;;31.10;24.24
75513;BME280;64090;49.770;18.760;2023-07-09T14:03:46;98021.13;;;30.98;23.92
75513;BME280;64090;49.770;18.760;2023-07-09T14:06:49;98018.28;;;30.92;24.02
75513;BME280;64090;49.770;18.760;2023-07-09T14:09:52;98018.17;;;30.89;23.93
75513;BME280;64090;49.770;18.760;2023-07-09T14:12:55;98016.40;;;30.77;24.54
75513;BME280;64090;49.770;18.760;2023-07-09T14:15:59;98015.35;;;30.72;24.25
75513;BME280;64090;49.770;18.760;2023-07-09T14:19:02;98013.91;;;30.76;23.94
75513;BME280;64090;49.770;18.760;2023-07-09T14:22:23;98013.31;;;30.82;25.06
75513;BME280;64090;49.770;18.760;2023-07-09T14:25:28;98019.31;;;30.92;24.38
75513;BME280;64090;49.770;18.760;2023-07-09T14:28:32;98013.41;;;31.00;24.07
75513;BME280;64090;49.770;18.760;2023-07-09T14:31:35;98012.08;;;31.04;23.36
75513;BME280;64090;49.770;18.760;2023-07-09T14:34:39;98012.37;;;31.03;24.09
75513;BME280;64090;49.770;18.760;2023-07-09T14:37:43;98012.64;;;31.08;24.08
75513;BME280;64090;49.770;18.760;2023-07-09T14:40:48;98009.15;;;31.01;24.70
75513;BME280;64090;49.770;18.760;2023-07-09T14:43:58;98007.59;;;31.02;24.87
75513;BME280;64090;49.770;18.760;2023-07-09T14:47:01;98000.21;;;30.92;24.01
75513;BME280;64090;49.770;18.760;2023-07-09T14:50:05;98001.05;;;31.03;24.52
75513;BME280;64090;49.770;18.760;2023-07-09T14:53:24;97997.08;;;31.12;24.37
75513;BME280;64090;49.770;18.760;2023-07-09T14:56:29;97996.23;;;31.10;24.48
75513;BME280;64090;49.770;18.760;2023-07-09T14:59:32;97994.11;;;31.11;24.40
75513;BME280;64090;49.770;18.760;2023-07-09T15:02:38;97995.33;;;31.18;24.74
75513;BME280;64090;49.770;18.760;2023-07-09T15:05:43;97990.94;;;31.12;24.58
75513;BME280;64090;49.770;18.760;2023-07-09T15:08:46;97992.77;;;31.02;25.28
75513;BME280;64090;49.770;18.760;2023-07-09T15:11:55;97988.29;;;31.03;25.72
75513;BME280;64090;49.770;18.760;2023-07-09T15:15:06;97983.09;;;31.16;25.66
75513;BME280;64090;49.770;18.760;2023-07-09T15:18:15;97986.49;;;31.19;25.79
75513;BME280;64090;49.770;18.760;2023-07-09T15:21:20;97978.42;;;31.13;25.38
75513;BME280;64090;49.770;18.760;2023-07-09T15:24:35;97974.16;;;31.16;25.96
75513;BME280;64090;49.770;18.760;2023-07-09T15:27:38;97975.53;;;31.19;26.17
75513;BME280;64090;49.770;18.760;2023-07-09T15:30:42;97974.48;;;31.25;25.79
75513;BME280;64090;49.770;18.760;2023-07-09T15:33:45;97971.98;;;31.25;25.50
75513;BME280;64090;49.770;18.760;2023-07-09T15:36:50;97973.10;;;31.32;25.62
75513;BME280;64090;49.770;18.760;2023-07-09T15:39:54;97971.41;;;31.37;26.44
75513;BME280;64090;49.770;18.760;2023-07-09T15:43:00;97967.27;;;31.45;26.17
75513;BME280;64090;49.770;18.760;2023-07-09T15:46:05;97964.38;;;31.42;26.25
75513;BME280;64090;49.770;18.760;2023-07-09T15:49:11;97965.05;;;31.45;26.19
75513;BME280;64090;49.770;18.760;2023-07-09T15:52:15;97963.36;;;31.48;26.60
75513;BME280;64090;49.770;18.760;2023-07-09T15:55:23;97961.42;;;31.51;26.65
75513;BME280;64090;49.770;18.760;2023-07-09T15:58:38;97962.30;;;31.58;26.10
75513;BME280;64090;49.770;18.760;2023-07-09T16:01:43;97961.00;;;31.46;25.47
75513;BME280;64090;49.770;18.760;2023-07-09T16:04:46;97955.52;;;31.26;26.03
75513;BME280;64090;49.770;18.760;2023-07-09T16:07:50;97952.56;;;31.14;25.97
75513;BME280;64090;49.770;18.760;2023-07-09T16:10:54;97950.70;;;30.95;25.73
75513;BME280;64090;49.770;18.760;2023-07-09T16:13:57;97952.31;;;30.86;26.71
75513;BME280;64090;49.770;18.760;2023-07-09T16:17:00;97951.84;;;30.79;26.55
75513;BME280;64090;49.770;18.760;2023-07-09T16:20:04;97947.34;;;30.84;27.11
75513;BME280;64090;49.770;18.760;2023-07-09T16:23:15;97947.44;;;30.83;27.00
75513;BME280;64090;49.770;18.760;2023-07-09T16:26:19;97945.30;;;30.72;27.09
75513;BME280;64090;49.770;18.760;2023-07-09T16:29:29;97945.13;;;30.62;27.80
75513;BME280;64090;49.770;18.760;2023-07-09T16:32:32;97942.74;;;30.57;27.57
75513;BME280;64090;49.770;18.760;2023-07-09T16:35:35;97943.82;;;30.50;27.31